Time;durP1;ratioP1;P1;durP2;ratioP2;P2;SDS_P1;SDS_P2;PMS_P1;PMS_P2;Temp;Humidity;BMP_temperature;BMP_pressure;BME280_temperature;BME280_humidity;BME280_pressure;Samples;Min_cycle;Max_cycle;Signal;HPM_P1;HPM_P2
2022/06/15 06:31:07;;;;;;;;;;;22.80;87.10;;;;;;5788443;22;20000;-80
2022/06/15 06:33:35;;;;;;;;;;;22.80;87.30;;;;;;4997557;28;20330;-81
2022/06/15 06:36:04;;;;;;;;;;;22.80;87.40;;;;;;4998244;28;19922;-81
2022/06/15 06:38:31;;;;;;;;;;;22.80;87.60;;;;;;4997704;28;19972;-81
2022/06/15 06:40:59;;;;;;;;;;;22.80;87.80;;;;;;4996870;28;19928;-79
2022/06/15 06:43:26;;;;;;;;;;;22.90;88.20;;;;;;4997406;28;20393;-80
2022/06/15 06:45:53;;;;;;;;;;;22.90;88.30;;;;;;4996120;28;19928;-79
2022/06/15 06:48:21;;;;;;;;;;;22.90;88.30;;;;;;4994938;28;19925;-79
2022/06/15 06:50:47;;;;;;;;;;;22.80;88.20;;;;;;4995364;28;20300;-80
2022/06/15 06:53:14;;;;;;;;;;;22.90;88.30;;;;;;4996565;28;20346;-79
2022/06/15 06:55:41;;;;;;;;;;;22.80;88.50;;;;;;4996014;28;19928;-80
2022/06/15 06:58:08;;;;;;;;;;;22.80;88.80;;;;;;4995526;28;19928;-79
2022/06/15 07:00:35;;;;;;;;;;;22.80;89.00;;;;;;4997871;28;20090;-79
2022/06/15 07:03:03;;;;;;;;;;;22.80;89.10;;;;;;4998726;28;19944;-78
2022/06/15 07:05:33;;;;;;;;;;;22.80;89.30;;;;;;4999056;28;19925;-79
2022/06/15 07:07:59;;;;;;;;;;;22.90;89.60;;;;;;4999208;28;19925;-79
2022/06/15 07:10:26;;;;;;;;;;;22.90;89.80;;;;;;4998652;28;19922;-80
2022/06/15 07:12:53;;;;;;;;;;;22.90;89.90;;;;;;4998449;28;20329;-79
2022/06/15 07:15:20;;;;;;;;;;;22.90;90.00;;;;;;4998358;28;20456;-79
2022/06/15 07:17:47;;;;;;;;;;;22.90;90.10;;;;;;4998122;28;19922;-79
2022/06/15 07:20:14;;;;;;;;;;;22.90;90.20;;;;;;4998495;28;19928;-78
2022/06/15 07:22:42;;;;;;;;;;;22.90;90.30;;;;;;4998025;28;19968;-78
2022/06/15 07:25:09;;;;;;;;;;;22.90;90.30;;;;;;4998439;28;19921;-80
2022/06/15 07:27:36;;;;;;;;;;;22.90;90.40;;;;;;4998713;28;19928;-80
2022/06/15 07:30:04;;;;;;;;;;;22.80;90.40;;;;;;4998258;28;19944;-79
2022/06/15 07:32:31;;;;;;;;;;;22.80;90.50;;;;;;4997872;28;19928;-79
2022/06/15 07:34:58;;;;;;;;;;;22.80;90.60;;;;;;4998173;28;19928;-79
2022/06/15 07:37:25;;;;;;;;;;;22.80;90.70;;;;;;4998312;28;19975;-79
2022/06/15 07:39:53;;;;;;;;;;;22.90;90.80;;;;;;4998002;28;19928;-79
2022/06/15 07:42:20;;;;;;;;;;;22.80;90.80;;;;;;4998073;28;20456;-79
2022/06/15 07:44:46;;;;;;;;;;;22.90;91.00;;;;;;4997688;28;19991;-79
2022/06/15 07:49:58;;;;;;;;;;;22.90;91.10;;;;;;4998249;28;19924;-79
2022/06/15 07:52:28;;;;;;;;;;;22.90;91.20;;;;;;4997840;28;19922;-79
2022/06/15 07:54:56;;;;;;;;;;;22.90;91.30;;;;;;4997719;28;20361;-79
2022/06/15 07:57:23;;;;;;;;;;;22.90;91.50;;;;;;4997757;28;19922;-79
2022/06/15 07:59:50;;;;;;;;;;;22.90;91.60;;;;;;4997611;28;19925;-79
2022/06/15 08:02:17;;;;;;;;;;;22.90;91.70;;;;;;4997669;28;19928;-79
2022/06/15 08:04:44;;;;;;;;;;;22.90;91.70;;;;;;4997230;28;19953;-79
2022/06/15 08:07:12;;;;;;;;;;;22.90;91.70;;;;;;4997245;28;19957;-79
2022/06/15 08:09:38;;;;;;;;;;;22.90;91.70;;;;;;4997536;28;19928;-80
2022/06/15 08:12:15;;;;;;;;;;;22.90;91.90;;;;;;4996921;28;19928;-80
2022/06/15 08:14:43;;;;;;;;;;;22.90;92.00;;;;;;4997521;28;20020;-80
2022/06/15 08:17:12;;;;;;;;;;;22.90;92.20;;;;;;4997744;28;19925;-80
2022/06/15 08:19:42;;;;;;;;;;;22.90;92.30;;;;;;4997897;28;20013;-79
2022/06/15 08:22:09;;;;;;;;;;;22.90;92.40;;;;;;4996969;28;19928;-77
2022/06/15 08:24:36;;;;;;;;;;;22.90;92.60;;;;;;4996115;28;19928;-77
2022/06/15 08:27:04;;;;;;;;;;;22.90;92.70;;;;;;4996468;28;19928;-79
2022/06/15 08:29:32;;;;;;;;;;;22.90;92.80;;;;;;4996880;28;19925;-79
2022/06/15 08:31:59;;;;;;;;;;;23.00;92.90;;;;;;4996926;28;19925;-79
2022/06/15 08:34:27;;;;;;;;;;;22.90;93.00;;;;;;4996619;28;20284;-79
2022/06/15 08:36:54;;;;;;;;;;;22.90;93.10;;;;;;4996759;28;20032;-79
2022/06/15 08:39:21;;;;;;;;;;;22.90;93.20;;;;;;4996468;28;20399;-79
2022/06/15 08:41:50;;;;;;;;;;;23.00;93.30;;;;;;4996189;28;19965;-77
2022/06/15 08:44:23;;;;;;;;;;;23.00;93.40;;;;;;4995868;28;19928;-78
2022/06/15 08:46:57;;;;;;;;;;;23.00;93.50;;;;;;4995911;28;20383;-77
2022/06/15 08:49:29;;;;;;;;;;;23.00;93.90;;;;;;4996841;28;19921;-77
2022/06/15 08:51:58;;;;;;;;;;;22.90;93.50;;;;;;5001192;28;19929;-78
2022/06/15 08:54:27;;;;;;;;;;;22.90;93.40;;;;;;5002389;28;19973;-76
2022/06/15 08:56:59;;;;;;;;;;;22.90;93.40;;;;;;5001527;28;20000;-80
2022/06/15 08:59:28;;;;;;;;;;;22.90;93.30;;;;;;5002543;28;19922;-79
2022/06/15 09:02:03;;;;;;;;;;;22.90;93.20;;;;;;5002363;28;20297;-82
2022/06/15 09:04:32;;;;;;;;;;;22.90;93.20;;;;;;4998816;28;20016;-87
2022/06/15 09:07:11;;;;;;;;;;;22.90;93.30;;;;;;4996375;28;20448;-79
2022/06/15 09:09:44;;;;;;;;;;;22.80;93.40;;;;;;4996394;28;19922;-79
2022/06/15 09:15:07;;;;;;;;;;;22.90;93.60;;;;;;4996977;28;19929;-78
2022/06/15 09:17:36;;;;;;;;;;;22.90;93.70;;;;;;4997781;28;19928;-81
2022/06/15 09:20:11;;;;;;;;;;;22.90;93.70;;;;;;5022839;23;19968;-80
2022/06/15 09:22:40;;;;;;;;;;;22.90;93.70;;;;;;4980894;28;19926;-77
2022/06/15 09:25:11;;;;;;;;;;;22.90;93.70;;;;;;4982894;28;19960;-81
2022/06/15 09:27:40;;;;;;;;;;;22.90;93.70;;;;;;4985449;28;19929;-79
2022/06/15 09:30:11;;;;;;;;;;;22.90;93.60;;;;;;4983675;28;19922;-79
2022/06/15 09:32:41;;;;;;;;;;;22.90;93.60;;;;;;4984674;28;19922;-79
2022/06/15 09:35:11;;;;;;;;;;;23.00;93.70;;;;;;4985868;28;19922;-80
2022/06/15 09:37:40;;;;;;;;;;;23.00;93.70;;;;;;4984847;28;19926;-80
2022/06/15 09:40:08;;;;;;;;;;;23.00;93.80;;;;;;4985011;28;19922;-80
2022/06/15 09:42:39;;;;;;;;;;;23.00;93.80;;;;;;4983657;28;19961;-81
2022/06/15 09:45:10;;;;;;;;;;;23.00;93.90;;;;;;4984349;28;20012;-82
2022/06/15 09:47:44;;;;;;;;;;;23.00;93.90;;;;;;4986106;28;19976;-82
2022/06/15 09:50:19;;;;;;;;;;;23.00;93.90;;;;;;4985993;28;19961;-82
2022/06/15 09:52:55;;;;;;;;;;;23.00;94.00;;;;;;4986121;28;19921;-79
2022/06/15 09:55:27;;;;;;;;;;;23.10;94.10;;;;;;4984883;28;20021;-79
2022/06/15 09:57:55;;;;;;;;;;;23.10;94.20;;;;;;4984229;28;19929;-78
2022/06/15 10:00:23;;;;;;;;;;;23.10;94.30;;;;;;4984344;28;19922;-80
2022/06/15 10:02:54;;;;;;;;;;;23.10;94.40;;;;;;4985304;28;20351;-82
2022/06/15 10:05:24;;;;;;;;;;;23.10;94.40;;;;;;4985418;28;19922;-83
2022/06/15 10:07:53;;;;;;;;;;;23.10;94.40;;;;;;4983448;28;19925;-83
2022/06/15 10:10:22;;;;;;;;;;;23.10;94.40;;;;;;4979215;28;19926;-82
2022/06/15 10:12:59;;;;;;;;;;;23.10;94.40;;;;;;4981401;28;19929;-82
2022/06/15 10:15:28;;;;;;;;;;;23.20;94.50;;;;;;4983188;28;20258;-82
2022/06/15 10:17:58;;;;;;;;;;;23.20;94.60;;;;;;4982574;28;19930;-82
2022/06/15 10:20:30;;;;;;;;;;;23.20;94.70;;;;;;4982586;28;19922;-82
2022/06/15 10:22:58;;;;;;;;;;;23.20;94.80;;;;;;4982168;28;20028;-82
2022/06/15 10:25:26;;;;;;;;;;;23.20;94.90;;;;;;4982145;28;20350;-82
2022/06/15 10:28:05;;;;;;;;;;;23.30;95.00;;;;;;4983966;28;19922;-82
2022/06/15 10:30:32;;;;;;;;;;;23.30;95.10;;;;;;4989212;28;20003;-81
2022/06/15 10:33:02;;;;;;;;;;;23.30;95.20;;;;;;4982489;28;19953;-83
2022/06/15 10:35:30;;;;;;;;;;;23.30;95.30;;;;;;4988195;28;19928;-82
2022/06/15 10:37:59;;;;;;;;;;;23.30;95.40;;;;;;4989263;28;20290;-82
2022/06/15 10:40:28;;;;;;;;;;;23.30;95.40;;;;;;4988447;28;19965;-82
2022/06/15 10:42:56;;;;;;;;;;;23.30;95.50;;;;;;4984130;28;19922;-80
2022/06/15 10:45:25;;;;;;;;;;;23.30;95.60;;;;;;4982793;28;19921;-81
2022/06/15 10:47:54;;;;;;;;;;;23.40;95.80;;;;;;4983138;28;19953;-80
2022/06/15 10:50:26;;;;;;;;;;;23.40;95.80;;;;;;4983407;28;19929;-79
2022/06/15 10:52:58;;;;;;;;;;;23.40;95.90;;;;;;4982947;28;20317;-80
2022/06/15 11:04:19;;;;;;;;;;;23.40;96.30;;;;;;4979881;28;20405;-82
2022/06/15 11:06:49;;;;;;;;;;;23.40;96.30;;;;;;4972347;28;19930;-82
2022/06/15 11:09:24;;;;;;;;;;;23.40;96.20;;;;;;4980596;28;19921;-82
2022/06/15 11:11:51;;;;;;;;;;;23.40;96.20;;;;;;4979106;28;19948;-81
2022/06/15 11:14:20;;;;;;;;;;;23.40;96.20;;;;;;4979199;28;19925;-81
2022/06/15 11:19:32;;;;;;;;;;;23.40;96.10;;;;;;4981076;28;20337;-81
2022/06/15 11:22:05;;;;;;;;;;;23.40;96.10;;;;;;4980872;28;19925;-81
2022/06/15 11:24:35;;;;;;;;;;;23.30;96.00;;;;;;4980160;28;19979;-81
2022/06/15 11:27:04;;;;;;;;;;;23.30;96.00;;;;;;4980595;28;19928;-81
2022/06/15 11:29:36;;;;;;;;;;;23.30;96.00;;;;;;4980558;28;19922;-81
2022/06/15 11:32:06;;;;;;;;;;;23.30;96.00;;;;;;4980135;28;19922;-81
2022/06/15 11:34:34;;;;;;;;;;;23.40;96.00;;;;;;4980666;28;19961;-81
2022/06/15 11:37:04;;;;;;;;;;;23.30;95.90;;;;;;4980348;28;19928;-81
2022/06/15 11:39:33;;;;;;;;;;;23.30;95.90;;;;;;4980594;28;19929;-81
2022/06/15 11:42:00;;;;;;;;;;;23.30;95.80;;;;;;4980561;28;19926;-81
2022/06/15 11:44:28;;;;;;;;;;;23.30;95.80;;;;;;4980539;28;19980;-81
2022/06/15 11:47:02;;;;;;;;;;;23.40;95.80;;;;;;4979585;28;19922;-81
2022/06/15 11:49:32;;;;;;;;;;;23.30;95.70;;;;;;4986122;28;20358;-81
2022/06/15 11:52:11;;;;;;;;;;;23.30;95.60;;;;;;4980349;28;20331;-81
2022/06/15 11:54:46;;;;;;;;;;;23.30;95.60;;;;;;4978314;28;20366;-81
2022/06/15 11:57:19;;;;;;;;;;;23.30;95.50;;;;;;4978812;28;19922;-81
2022/06/15 11:59:49;;;;;;;;;;;23.30;95.50;;;;;;4978600;28;19925;-81
2022/06/15 12:02:19;;;;;;;;;;;23.30;95.50;;;;;;4978621;28;20292;-81
2022/06/15 12:05:02;;;;;;;;;;;23.30;95.40;;;;;;4979369;28;19928;-81
2022/06/15 12:07:35;;;;;;;;;;;23.30;95.40;;;;;;4978684;28;19922;-81
2022/06/15 12:10:06;;;;;;;;;;;23.30;95.30;;;;;;4979166;28;19976;-81
2022/06/15 12:12:40;;;;;;;;;;;23.30;95.30;;;;;;4978771;28;19977;-81
2022/06/15 12:15:14;;;;;;;;;;;23.30;95.20;;;;;;4978785;28;19969;-81
2022/06/15 12:17:45;;;;;;;;;;;23.30;95.20;;;;;;4978871;28;19922;-81
2022/06/15 12:20:16;;;;;;;;;;;23.30;95.10;;;;;;4978703;28;19939;-81
2022/06/15 12:22:48;;;;;;;;;;;23.30;95.10;;;;;;4978583;28;20033;-81
2022/06/15 12:25:21;;;;;;;;;;;23.30;95.00;;;;;;4978138;28;19922;-81
2022/06/15 12:27:52;;;;;;;;;;;23.30;95.00;;;;;;4978449;28;19929;-81
2022/06/15 12:30:27;;;;;;;;;;;23.30;94.90;;;;;;4978366;28;20004;-81
2022/06/15 12:33:00;;;;;;;;;;;23.30;94.90;;;;;;4978468;28;20329;-81
2022/06/15 12:35:31;;;;;;;;;;;23.30;94.80;;;;;;4977891;28;20296;-81
2022/06/15 12:38:03;;;;;;;;;;;23.30;94.70;;;;;;4977516;28;20382;-81
2022/06/15 12:40:32;;;;;;;;;;;23.30;94.70;;;;;;4977887;28;20013;-81
2022/06/15 12:43:03;;;;;;;;;;;23.30;94.60;;;;;;4978482;28;20005;-81
2022/06/15 12:45:32;;;;;;;;;;;23.30;94.60;;;;;;4977945;28;19922;-81
2022/06/15 12:48:01;;;;;;;;;;;23.30;94.50;;;;;;4977643;28;19926;-79
2022/06/15 12:50:35;;;;;;;;;;;23.40;94.50;;;;;;4976822;28;19929;-79
2022/06/15 12:53:07;;;;;;;;;;;23.40;94.50;;;;;;4979193;28;19928;-81
2022/06/15 12:55:37;;;;;;;;;;;23.40;94.50;;;;;;4978462;28;20389;-81
2022/06/15 12:58:07;;;;;;;;;;;23.40;94.50;;;;;;4979337;28;19925;-81
2022/06/15 13:00:35;;;;;;;;;;;23.40;94.50;;;;;;4979495;28;19926;-81
2022/06/15 13:03:08;;;;;;;;;;;23.40;94.50;;;;;;4979458;28;20356;-81
2022/06/15 13:05:38;;;;;;;;;;;23.40;94.50;;;;;;4979439;28;20020;-81
2022/06/15 13:08:32;;;;;;;;;;;23.40;94.40;;;;;;4979153;28;19922;-81
2022/06/15 13:11:00;;;;;;;;;;;23.40;94.30;;;;;;4980171;28;19922;-81
2022/06/15 13:13:29;;;;;;;;;;;23.40;94.30;;;;;;4978830;28;19922;-81
2022/06/15 13:15:57;;;;;;;;;;;23.40;94.20;;;;;;4978693;28;20016;-81
2022/06/15 13:18:38;;;;;;;;;;;23.40;94.20;;;;;;4979567;28;19933;-81
2022/06/15 13:21:05;;;;;;;;;;;23.40;94.10;;;;;;4979184;28;19929;-81
2022/06/15 13:23:35;;;;;;;;;;;23.50;94.20;;;;;;4979583;28;19944;-81
2022/06/15 13:26:05;;;;;;;;;;;23.50;94.10;;;;;;4979132;28;20285;-80
2022/06/15 13:28:33;;;;;;;;;;;23.50;94.10;;;;;;4977588;28;20301;-79
2022/06/15 13:31:01;;;;;;;;;;;23.50;94.10;;;;;;4977244;28;20408;-79
2022/06/15 13:33:46;;;;;;;;;;;23.50;94.00;;;;;;4978087;28;19960;-79
2022/06/15 13:36:21;;;;;;;;;;;23.50;94.00;;;;;;4978200;28;20293;-79
2022/06/15 13:38:49;;;;;;;;;;;23.50;93.90;;;;;;4978396;28;19980;-79
2022/06/15 13:41:17;;;;;;;;;;;23.50;93.80;;;;;;4977318;28;20302;-79
2022/06/15 13:44:02;;;;;;;;;;;23.50;93.80;;;;;;4977809;28;19922;-79
2022/06/15 13:46:31;;;;;;;;;;;23.50;93.70;;;;;;4977511;28;20299;-79
2022/06/15 13:49:00;;;;;;;;;;;23.50;93.60;;;;;;4977324;28;20377;-79
2022/06/15 13:51:29;;;;;;;;;;;23.60;93.60;;;;;;4977221;28;19944;-79
2022/06/15 13:54:01;;;;;;;;;;;23.60;93.50;;;;;;4976755;28;19922;-79
2022/06/15 13:56:32;;;;;;;;;;;23.50;93.30;;;;;;4976354;28;19973;-79
2022/06/15 13:59:15;;;;;;;;;;;23.50;93.20;;;;;;4976198;28;19922;-79
2022/06/15 14:01:57;;;;;;;;;;;23.60;93.10;;;;;;4976709;28;20012;-79
2022/06/15 14:04:35;;;;;;;;;;;23.50;93.00;;;;;;4956291;28;19929;-79
2022/06/15 14:07:17;;;;;;;;;;;23.50;92.80;;;;;;4976438;28;19929;-79
2022/06/15 14:09:51;;;;;;;;;;;23.50;92.70;;;;;;4974933;28;19922;-79
2022/06/15 14:12:26;;;;;;;;;;;23.50;92.60;;;;;;4975578;28;19922;-80
2022/06/15 14:15:03;;;;;;;;;;;23.50;92.50;;;;;;4978010;28;19933;-80
2022/06/15 14:17:39;;;;;;;;;;;23.50;92.40;;;;;;4979286;28;20266;-80
2022/06/15 14:20:07;;;;;;;;;;;23.50;92.30;;;;;;4978298;28;19928;-80
2022/06/15 14:22:45;;;;;;;;;;;23.50;92.10;;;;;;4978985;28;19969;-81
2022/06/15 14:25:16;;;;;;;;;;;23.50;92.00;;;;;;4979631;28;20009;-80
2022/06/15 14:27:43;;;;;;;;;;;23.50;92.00;;;;;;4983368;28;19982;-80
2022/06/15 14:30:18;;;;;;;;;;;23.50;92.00;;;;;;4988551;28;19929;-81
2022/06/15 14:32:45;;;;;;;;;;;23.50;92.10;;;;;;4984858;28;19985;-81
2022/06/15 14:35:13;;;;;;;;;;;23.50;91.90;;;;;;4990142;28;19958;-81
2022/06/15 14:37:41;;;;;;;;;;;23.50;91.80;;;;;;4981444;28;19929;-82
2022/06/15 14:40:08;;;;;;;;;;;23.50;91.80;;;;;;4980526;28;20333;-82
2022/06/15 14:45:21;;;;;;;;;;;23.50;91.60;;;;;;4978581;28;19929;-81
2022/06/15 14:47:53;;;;;;;;;;;23.50;91.60;;;;;;4978360;28;20051;-81
2022/06/15 14:50:21;;;;;;;;;;;23.50;91.40;;;;;;4978035;28;19921;-82
2022/06/15 14:52:48;;;;;;;;;;;23.50;91.40;;;;;;4979484;28;19946;-81
2022/06/15 14:55:17;;;;;;;;;;;23.50;91.30;;;;;;4978214;28;19933;-81
2022/06/15 14:57:46;;;;;;;;;;;23.50;91.20;;;;;;4980554;28;19922;-81
2022/06/15 15:00:19;;;;;;;;;;;23.50;91.20;;;;;;4979158;28;19922;-81
2022/06/15 15:02:49;;;;;;;;;;;23.50;91.10;;;;;;4978413;28;19926;-81
2022/06/15 15:05:20;;;;;;;;;;;23.50;91.00;;;;;;4961791;28;20282;-81
2022/06/15 15:10:33;;;;;;;;;;;23.40;90.70;;;;;;4981991;28;19942;-81
2022/06/15 15:13:18;;;;;;;;;;;23.50;90.70;;;;;;4982210;28;20020;-81
2022/06/15 15:15:47;;;;;;;;;;;23.40;90.60;;;;;;4982065;28;20287;-82
2022/06/15 15:18:16;;;;;;;;;;;23.40;90.50;;;;;;4982380;28;19922;-81
2022/06/15 15:20:44;;;;;;;;;;;23.40;90.40;;;;;;4981236;28;19922;-81
2022/06/15 15:23:10;;;;;;;;;;;23.40;90.30;;;;;;4980864;28;20058;-81
2022/06/15 15:25:38;;;;;;;;;;;23.40;90.20;;;;;;4980438;28;20034;-81
2022/06/15 15:39:30;;;;;;;;;;;23.40;89.30;;;;;;4983789;28;20321;-81
2022/06/15 15:41:56;;;;;;;;;;;23.40;88.90;;;;;;4983744;28;19946;-81
2022/06/15 15:44:23;;;;;;;;;;;23.40;88.80;;;;;;4982093;28;19958;-81
2022/06/15 15:46:52;;;;;;;;;;;23.40;88.90;;;;;;4982180;28;19930;-81
2022/06/15 15:49:19;;;;;;;;;;;23.40;88.80;;;;;;4986013;28;19938;-81
2022/06/15 15:51:45;;;;;;;;;;;23.40;88.50;;;;;;4981372;28;20008;-81
2022/06/15 15:54:12;;;;;;;;;;;23.40;88.20;;;;;;4980358;28;20369;-81
2022/06/15 15:56:40;;;;;;;;;;;23.40;88.00;;;;;;4979129;28;20025;-81
2022/06/15 15:59:06;;;;;;;;;;;23.30;87.70;;;;;;4979668;28;19928;-81
2022/06/15 16:01:33;;;;;;;;;;;23.40;87.80;;;;;;4981609;28;19957;-81
2022/06/15 16:04:01;;;;;;;;;;;23.40;87.60;;;;;;4980142;28;19926;-82
2022/06/15 16:06:29;;;;;;;;;;;23.40;87.50;;;;;;4979416;28;20014;-79
2022/06/15 16:08:56;;;;;;;;;;;23.40;87.30;;;;;;4983293;28;19926;-81
2022/06/15 16:11:23;;;;;;;;;;;23.40;87.20;;;;;;4981192;28;19922;-81
2022/06/15 16:13:50;;;;;;;;;;;23.40;87.00;;;;;;4981389;28;19928;-81
2022/06/15 16:16:17;;;;;;;;;;;23.40;86.80;;;;;;4983280;28;19922;-81
2022/06/15 16:18:44;;;;;;;;;;;23.40;86.60;;;;;;4981915;28;19922;-79
2022/06/15 16:21:12;;;;;;;;;;;23.40;86.50;;;;;;4979817;28;19972;-81
2022/06/15 16:23:41;;;;;;;;;;;23.40;86.30;;;;;;4978728;28;19922;-81
2022/06/15 16:26:08;;;;;;;;;;;23.30;86.00;;;;;;4978864;28;20009;-81
2022/06/15 16:28:35;;;;;;;;;;;23.30;85.80;;;;;;4978923;28;19922;-81
2022/06/15 16:31:03;;;;;;;;;;;23.40;85.70;;;;;;4978970;28;19922;-81
2022/06/15 16:33:30;;;;;;;;;;;23.40;85.60;;;;;;4978973;28;20282;-81
2022/06/15 16:35:59;;;;;;;;;;;23.30;85.30;;;;;;4978890;28;19922;-81
2022/06/15 16:38:27;;;;;;;;;;;23.30;85.20;;;;;;4978389;28;19949;-81
2022/06/15 16:41:08;;;;;;;;;;;23.30;85.00;;;;;;4978824;28;19922;-80
2022/06/15 16:43:35;;;;;;;;;;;23.30;84.90;;;;;;4978497;28;19969;-80
2022/06/15 16:46:02;;;;;;;;;;;23.30;84.80;;;;;;4978644;28;19929;-80
2022/06/15 16:48:28;;;;;;;;;;;23.30;84.60;;;;;;4978483;28;19957;-80
2022/06/15 16:50:55;;;;;;;;;;;23.30;84.50;;;;;;4978609;28;19976;-80
2022/06/15 16:53:22;;;;;;;;;;;23.30;84.40;;;;;;4978415;28;19922;-80
2022/06/15 16:55:51;;;;;;;;;;;23.30;84.20;;;;;;4978933;28;20016;-80
2022/06/15 16:58:19;;;;;;;;;;;23.30;84.10;;;;;;4978343;28;19985;-80
2022/06/15 17:00:45;;;;;;;;;;;23.30;84.00;;;;;;4978301;28;20313;-80
2022/06/15 17:03:12;;;;;;;;;;;23.30;83.90;;;;;;4978172;28;19921;-80
2022/06/15 17:05:40;;;;;;;;;;;23.30;83.70;;;;;;4979148;28;20243;-80
2022/06/15 17:08:07;;;;;;;;;;;23.30;83.70;;;;;;4978162;28;19922;-80
2022/06/15 17:10:34;;;;;;;;;;;23.30;83.60;;;;;;4977856;28;19922;-80
2022/06/15 17:13:03;;;;;;;;;;;23.30;83.40;;;;;;4978236;28;19922;-80
2022/06/15 17:15:30;;;;;;;;;;;23.30;83.30;;;;;;4978028;28;20341;-80
2022/06/15 17:17:57;;;;;;;;;;;23.30;83.10;;;;;;4977895;28;19925;-80
2022/06/15 17:20:24;;;;;;;;;;;23.30;83.00;;;;;;4977839;28;19954;-80
2022/06/15 17:22:50;;;;;;;;;;;23.30;83.70;;;;;;4977566;28;19922;-80
2022/06/15 17:25:19;;;;;;;;;;;23.30;83.00;;;;;;4977901;28;19921;-80
2022/06/15 17:27:45;;;;;;;;;;;23.30;83.10;;;;;;4977730;28;20024;-80
2022/06/15 17:30:14;;;;;;;;;;;23.30;83.10;;;;;;4977878;28;19928;-80
2022/06/15 17:32:41;;;;;;;;;;;23.30;83.00;;;;;;4977588;28;20371;-80
2022/06/15 17:35:08;;;;;;;;;;;23.30;83.00;;;;;;4977528;28;20366;-80
2022/06/15 17:37:35;;;;;;;;;;;23.30;83.00;;;;;;4978747;28;20016;-80
2022/06/15 17:40:02;;;;;;;;;;;23.30;83.10;;;;;;4978873;28;19944;-80
2022/06/15 17:42:28;;;;;;;;;;;23.30;83.10;;;;;;4978851;28;20030;-80
2022/06/15 17:44:55;;;;;;;;;;;23.30;83.10;;;;;;4978084;28;19929;-80
2022/06/15 17:47:23;;;;;;;;;;;23.30;83.10;;;;;;4978406;28;19928;-80
2022/06/15 17:49:50;;;;;;;;;;;23.30;83.10;;;;;;4977910;28;19928;-81
2022/06/15 17:52:17;;;;;;;;;;;23.30;83.00;;;;;;4977508;28;20316;-81
2022/06/15 17:54:44;;;;;;;;;;;23.30;83.00;;;;;;4978375;28;20400;-80
2022/06/15 17:57:11;;;;;;;;;;;23.30;83.00;;;;;;4980321;28;19991;-80
2022/06/15 17:59:38;;;;;;;;;;;23.30;83.00;;;;;;4981267;28;19929;-79
2022/06/15 18:02:05;;;;;;;;;;;23.30;82.90;;;;;;4977320;28;20004;-79
2022/06/15 18:04:33;;;;;;;;;;;23.30;82.80;;;;;;4976445;28;20008;-81
2022/06/15 18:07:00;;;;;;;;;;;23.30;82.70;;;;;;4977212;28;19925;-81
2022/06/15 18:09:26;;;;;;;;;;;23.30;82.40;;;;;;4977412;28;19933;-82
2022/06/15 18:11:53;;;;;;;;;;;23.30;81.80;;;;;;4977479;28;19922;-83
2022/06/15 18:14:22;;;;;;;;;;;23.20;81.30;;;;;;4977285;28;19928;-79
2022/06/15 18:16:51;;;;;;;;;;;23.20;81.20;;;;;;4977411;28;20024;-79
2022/06/15 18:19:20;;;;;;;;;;;23.20;81.00;;;;;;4978408;28;19961;-80
2022/06/15 18:21:49;;;;;;;;;;;23.20;80.90;;;;;;4978276;28;19922;-79
2022/06/15 18:24:18;;;;;;;;;;;23.10;80.60;;;;;;4978236;28;19957;-80
2022/06/15 18:26:47;;;;;;;;;;;23.20;80.50;;;;;;4977726;28;19922;-79
2022/06/15 18:29:13;;;;;;;;;;;23.20;80.30;;;;;;4977954;28;20370;-81
2022/06/15 18:31:41;;;;;;;;;;;23.20;80.00;;;;;;4977507;28;20386;-79
2022/06/15 18:34:11;;;;;;;;;;;23.20;79.80;;;;;;4977713;28;19922;-79
2022/06/15 18:36:38;;;;;;;;;;;23.20;79.70;;;;;;4978017;28;19925;-79
2022/06/15 18:39:08;;;;;;;;;;;23.20;79.40;;;;;;4977754;28;20433;-79
2022/06/15 18:41:35;;;;;;;;;;;23.20;79.20;;;;;;4977629;28;20396;-79
2022/06/15 18:49:30;;;;;;;;;;;23.20;78.70;;;;;;4978124;28;19929;-79
2022/06/15 18:51:57;;;;;;;;;;;23.20;78.50;;;;;;4977977;28;19965;-79
2022/06/15 18:54:25;;;;;;;;;;;23.20;78.40;;;;;;4978402;28;19922;-79
2022/06/15 18:56:52;;;;;;;;;;;23.20;78.20;;;;;;4981069;28;19922;-79
2022/06/15 18:59:18;;;;;;;;;;;23.20;78.10;;;;;;4980087;28;20293;-79
2022/06/15 19:01:45;;;;;;;;;;;23.20;77.90;;;;;;4981849;28;19973;-79
2022/06/15 19:04:12;;;;;;;;;;;23.20;77.80;;;;;;4980457;28;19922;-79
2022/06/15 19:06:38;;;;;;;;;;;23.20;77.60;;;;;;4980484;28;19944;-79
2022/06/15 19:09:05;;;;;;;;;;;23.20;77.50;;;;;;4981848;28;19922;-79
2022/06/15 19:11:34;;;;;;;;;;;23.20;77.20;;;;;;4982019;28;20378;-79
2022/06/15 19:14:01;;;;;;;;;;;23.20;77.10;;;;;;4982315;28;20005;-79
2022/06/15 19:16:27;;;;;;;;;;;23.20;77.10;;;;;;4982401;28;19925;-79
2022/06/15 19:18:54;;;;;;;;;;;23.20;77.10;;;;;;4981637;28;19962;-79
2022/06/15 19:21:21;;;;;;;;;;;23.20;77.10;;;;;;4980519;28;19921;-80
2022/06/15 19:23:48;;;;;;;;;;;23.20;77.10;;;;;;4981209;28;19942;-80
2022/06/15 19:26:15;;;;;;;;;;;23.20;77.10;;;;;;4980243;28;20012;-79
2022/06/15 19:28:43;;;;;;;;;;;23.20;76.90;;;;;;4978204;28;19929;-76
2022/06/15 19:31:11;;;;;;;;;;;23.20;76.70;;;;;;4977684;28;20312;-77
2022/06/15 19:33:38;;;;;;;;;;;23.20;76.50;;;;;;4978079;28;20016;-76
2022/06/15 19:36:05;;;;;;;;;;;23.10;76.30;;;;;;4978038;28;19928;-77
2022/06/15 19:38:32;;;;;;;;;;;23.10;76.30;;;;;;4977742;28;19929;-77
2022/06/15 19:40:58;;;;;;;;;;;23.20;76.50;;;;;;4977992;28;20288;-77
2022/06/15 19:43:30;;;;;;;;;;;23.20;76.60;;;;;;4978030;28;20020;-76
2022/06/15 19:45:58;;;;;;;;;;;23.20;76.70;;;;;;4977949;28;19925;-77
2022/06/15 19:48:25;;;;;;;;;;;23.20;76.90;;;;;;4977536;28;19929;-77
2022/06/15 19:50:52;;;;;;;;;;;23.30;76.90;;;;;;4977570;28;20000;-76
2022/06/15 19:53:19;;;;;;;;;;;23.30;76.80;;;;;;4977455;28;20391;-77
2022/06/15 19:55:46;;;;;;;;;;;23.30;76.90;;;;;;4977650;28;19922;-78
2022/06/15 19:58:13;;;;;;;;;;;23.30;76.90;;;;;;4977339;28;19922;-78
2022/06/15 20:00:42;;;;;;;;;;;23.30;76.90;;;;;;4977657;28;20001;-77
2022/06/15 20:03:10;;;;;;;;;;;23.30;76.80;;;;;;4977569;28;19922;-77
2022/06/15 20:05:37;;;;;;;;;;;23.30;76.70;;;;;;4977357;28;20410;-77
2022/06/15 20:08:04;;;;;;;;;;;23.30;76.70;;;;;;4976602;28;19922;-77
2022/06/15 20:10:31;;;;;;;;;;;23.30;76.70;;;;;;4977232;28;20001;-78
2022/06/15 20:12:58;;;;;;;;;;;23.30;76.70;;;;;;4977426;28;20012;-78
2022/06/15 20:15:25;;;;;;;;;;;23.30;76.70;;;;;;4977280;28;20301;-78
2022/06/15 20:17:54;;;;;;;;;;;23.30;76.70;;;;;;4977084;28;19922;-78
2022/06/15 20:20:24;;;;;;;;;;;23.30;76.60;;;;;;4976782;28;19965;-77
2022/06/15 20:22:52;;;;;;;;;;;23.30;76.60;;;;;;4977223;28;19973;-78
2022/06/15 20:25:19;;;;;;;;;;;23.30;76.60;;;;;;5007859;23;19997;-80
2022/06/15 20:27:48;;;;;;;;;;;23.30;76.60;;;;;;5013105;28;19929;-81
2022/06/15 20:30:15;;;;;;;;;;;23.30;76.50;;;;;;5013350;28;20360;-82
2022/06/15 20:32:42;;;;;;;;;;;23.30;76.50;;;;;;5014113;28;19961;-81
2022/06/15 20:35:09;;;;;;;;;;;23.30;76.50;;;;;;5014087;28;19961;-81
2022/06/15 20:37:37;;;;;;;;;;;23.30;76.50;;;;;;5013105;28;19929;-82
2022/06/15 20:40:05;;;;;;;;;;;23.30;76.50;;;;;;5013525;28;19968;-81
2022/06/15 20:42:31;;;;;;;;;;;23.30;76.50;;;;;;5011762;28;19922;-81
2022/06/15 20:45:01;;;;;;;;;;;23.30;76.50;;;;;;5013593;28;20389;-81
2022/06/15 20:47:27;;;;;;;;;;;23.30;76.50;;;;;;5008268;28;19945;-86
2022/06/15 20:49:57;;;;;;;;;;;23.30;76.50;;;;;;4998813;28;19922;-85
2022/06/15 20:52:24;;;;;;;;;;;23.30;76.60;;;;;;5000622;28;19933;-85
2022/06/15 20:54:52;;;;;;;;;;;23.30;76.70;;;;;;5003113;28;20012;-85
2022/06/15 20:57:20;;;;;;;;;;;23.30;76.80;;;;;;5003576;28;20381;-87
2022/06/15 20:59:46;;;;;;;;;;;23.30;76.90;;;;;;5003382;28;19928;-88
2022/06/15 21:02:15;;;;;;;;;;;23.30;77.00;;;;;;5002012;28;19925;-88
2022/06/15 21:04:43;;;;;;;;;;;23.30;77.10;;;;;;5002874;28;19976;-85
2022/06/15 21:07:12;;;;;;;;;;;23.30;77.20;;;;;;5002164;28;19922;-86
2022/06/15 21:09:40;;;;;;;;;;;23.30;77.20;;;;;;5008737;28;19984;-88
2022/06/15 21:17:44;;;;;;;;;;;23.30;77.20;;;;;;5001994;28;19924;-86
2022/06/15 21:20:14;;;;;;;;;;;23.30;77.20;;;;;;5000895;28;20350;-87
2022/06/15 21:22:43;;;;;;;;;;;23.30;77.20;;;;;;5001422;28;19928;-87
2022/06/15 21:25:13;;;;;;;;;;;23.30;77.40;;;;;;5000670;28;19948;-87
2022/06/15 21:27:47;;;;;;;;;;;23.30;77.60;;;;;;5002459;28;19993;-87
2022/06/15 21:30:14;;;;;;;;;;;23.30;77.70;;;;;;5002348;28;19929;-87
2022/06/15 21:32:41;;;;;;;;;;;23.30;77.80;;;;;;5001307;28;20361;-87
2022/06/15 21:35:08;;;;;;;;;;;23.30;78.00;;;;;;5002051;28;19968;-87
2022/06/15 21:37:35;;;;;;;;;;;23.30;78.10;;;;;;4999557;28;19928;-87
2022/06/15 21:40:02;;;;;;;;;;;23.30;78.20;;;;;;4996148;28;20012;-88
2022/06/15 21:42:29;;;;;;;;;;;23.30;78.30;;;;;;4995757;28;19957;-88